sensor_id;sensor_type;location;lat;lon;timestamp;P1;durP1;ratioP1;P2;durP2;ratioP2
52738;SDS011;52466;40.122;18.318;2022-10-16T00:02:07;127.22;;;64.90;;
52738;SDS011;52466;40.122;18.318;2022-10-16T00:05:15;130.35;;;64.97;;
52738;SDS011;52466;40.122;18.318;2022-10-16T00:08:23;130.65;;;64.88;;
52738;SDS011;52466;40.122;18.318;2022-10-16T00:11:32;128.63;;;65.25;;
52738;SDS011;52466;40.122;18.318;2022-10-16T00:14:43;126.22;;;65.38;;
52738;SDS011;52466;40.122;18.318;2022-10-16T00:17:51;129.43;;;64.68;;
52738;SDS011;52466;40.122;18.318;2022-10-16T00:21:05;127.35;;;63.97;;
52738;SDS011;52466;40.122;18.318;2022-10-16T00:24:36;128.77;;;65.47;;
52738;SDS011;52466;40.122;18.318;2022-10-16T00:27:43;126.78;;;65.72;;
52738;SDS011;52466;40.122;18.318;2022-10-16T00:30:51;126.45;;;65.72;;
52738;SDS011;52466;40.122;18.318;2022-10-16T00:34:00;131.93;;;66.03;;
52738;SDS011;52466;40.122;18.318;2022-10-16T00:37:07;128.77;;;65.88;;
52738;SDS011;52466;40.122;18.318;2022-10-16T00:40:15;128.35;;;65.40;;
52738;SDS011;52466;40.122;18.318;2022-10-16T00:46:41;128.02;;;65.60;;
52738;SDS011;52466;40.122;18.318;2022-10-16T00:49:51;134.10;;;69.50;;
52738;SDS011;52466;40.122;18.318;2022-10-16T00:53:04;133.52;;;67.25;;
52738;SDS011;52466;40.122;18.318;2022-10-16T00:56:12;136.40;;;67.60;;
52738;SDS011;52466;40.122;18.318;2022-10-16T01:02:32;135.82;;;67.65;;
52738;SDS011;52466;40.122;18.318;2022-10-16T01:05:44;128.90;;;66.55;;
52738;SDS011;52466;40.122;18.318;2022-10-16T01:09:11;131.32;;;66.65;;
52738;SDS011;52466;40.122;18.318;2022-10-16T01:16:01;129.05;;;66.05;;
52738;SDS011;52466;40.122;18.318;2022-10-16T01:23:05;131.82;;;67.18;;
52738;SDS011;52466;40.122;18.318;2022-10-16T01:29:38;128.90;;;65.10;;
52738;SDS011;52466;40.122;18.318;2022-10-16T01:36:19;132.05;;;67.60;;
52738;SDS011;52466;40.122;18.318;2022-10-16T01:39:33;135.80;;;68.93;;
52738;SDS011;52466;40.122;18.318;2022-10-16T01:42:50;132.02;;;68.82;;
52738;SDS011;52466;40.122;18.318;2022-10-16T01:46:03;137.00;;;69.60;;
52738;SDS011;52466;40.122;18.318;2022-10-16T01:49:13;136.30;;;70.45;;
52738;SDS011;52466;40.122;18.318;2022-10-16T01:52:23;137.50;;;70.25;;
52738;SDS011;52466;40.122;18.318;2022-10-16T01:55:38;139.07;;;70.45;;
52738;SDS011;52466;40.122;18.318;2022-10-16T02:02:32;133.30;;;68.78;;
52738;SDS011;52466;40.122;18.318;2022-10-16T02:05:42;137.55;;;70.00;;
52738;SDS011;52466;40.122;18.318;2022-10-16T02:08:55;133.85;;;69.57;;
52738;SDS011;52466;40.122;18.318;2022-10-16T02:12:08;138.07;;;69.30;;
52738;SDS011;52466;40.122;18.318;2022-10-16T02:15:20;132.45;;;69.45;;
52738;SDS011;52466;40.122;18.318;2022-10-16T02:18:28;133.38;;;68.35;;
52738;SDS011;52466;40.122;18.318;2022-10-16T02:21:42;133.85;;;68.32;;
52738;SDS011;52466;40.122;18.318;2022-10-16T02:25:08;134.10;;;68.85;;
52738;SDS011;52466;40.122;18.318;2022-10-16T02:28:25;131.13;;;67.93;;
52738;SDS011;52466;40.122;18.318;2022-10-16T02:31:41;136.30;;;68.88;;
52738;SDS011;52466;40.122;18.318;2022-10-16T02:34:52;132.80;;;67.85;;
52738;SDS011;52466;40.122;18.318;2022-10-16T02:38:01;132.93;;;69.55;;
52738;SDS011;52466;40.122;18.318;2022-10-16T02:41:10;132.50;;;68.95;;
52738;SDS011;52466;40.122;18.318;2022-10-16T02:44:17;130.75;;;67.68;;
52738;SDS011;52466;40.122;18.318;2022-10-16T02:47:25;131.88;;;69.13;;
52738;SDS011;52466;40.122;18.318;2022-10-16T02:50:33;127.95;;;67.75;;
52738;SDS011;52466;40.122;18.318;2022-10-16T02:53:41;133.90;;;68.28;;
52738;SDS011;52466;40.122;18.318;2022-10-16T02:56:48;133.68;;;67.60;;
52738;SDS011;52466;40.122;18.318;2022-10-16T02:59:56;133.63;;;68.15;;
52738;SDS011;52466;40.122;18.318;2022-10-16T03:03:04;128.98;;;68.00;;
52738;SDS011;52466;40.122;18.318;2022-10-16T03:06:12;132.57;;;67.85;;
52738;SDS011;52466;40.122;18.318;2022-10-16T03:09:19;133.70;;;68.57;;
52738;SDS011;52466;40.122;18.318;2022-10-16T03:12:27;133.32;;;69.05;;
52738;SDS011;52466;40.122;18.318;2022-10-16T03:15:35;132.13;;;67.43;;
52738;SDS011;52466;40.122;18.318;2022-10-16T03:18:43;134.57;;;67.72;;
52738;SDS011;52466;40.122;18.318;2022-10-16T03:21:54;130.98;;;68.30;;
52738;SDS011;52466;40.122;18.318;2022-10-16T03:25:02;137.30;;;69.55;;
52738;SDS011;52466;40.122;18.318;2022-10-16T03:28:10;134.07;;;68.97;;
52738;SDS011;52466;40.122;18.318;2022-10-16T03:31:17;134.95;;;69.50;;
52738;SDS011;52466;40.122;18.318;2022-10-16T03:34:25;133.90;;;68.35;;
52738;SDS011;52466;40.122;18.318;2022-10-16T03:37:33;133.90;;;68.82;;
52738;SDS011;52466;40.122;18.318;2022-10-16T03:40:41;130.30;;;68.93;;
52738;SDS011;52466;40.122;18.318;2022-10-16T03:43:49;133.45;;;69.35;;
52738;SDS011;52466;40.122;18.318;2022-10-16T03:46:57;134.77;;;70.43;;
52738;SDS011;52466;40.122;18.318;2022-10-16T03:50:05;138.82;;;69.63;;
52738;SDS011;52466;40.122;18.318;2022-10-16T03:53:13;134.65;;;69.28;;
52738;SDS011;52466;40.122;18.318;2022-10-16T03:56:22;134.15;;;70.68;;
52738;SDS011;52466;40.122;18.318;2022-10-16T03:59:29;139.10;;;72.47;;
52738;SDS011;52466;40.122;18.318;2022-10-16T04:02:37;143.82;;;73.25;;
52738;SDS011;52466;40.122;18.318;2022-10-16T04:05:45;141.55;;;74.53;;
52738;SDS011;52466;40.122;18.318;2022-10-16T04:08:53;140.73;;;73.75;;
52738;SDS011;52466;40.122;18.318;2022-10-16T04:12:00;143.55;;;73.75;;
52738;SDS011;52466;40.122;18.318;2022-10-16T04:15:08;141.02;;;73.22;;
52738;SDS011;52466;40.122;18.318;2022-10-16T04:18:16;147.48;;;74.60;;
52738;SDS011;52466;40.122;18.318;2022-10-16T04:21:24;144.38;;;75.40;;
52738;SDS011;52466;40.122;18.318;2022-10-16T04:24:32;141.43;;;73.43;;
52738;SDS011;52466;40.122;18.318;2022-10-16T04:27:40;142.55;;;75.43;;
52738;SDS011;52466;40.122;18.318;2022-10-16T04:30:47;147.88;;;75.63;;
52738;SDS011;52466;40.122;18.318;2022-10-16T04:33:55;147.25;;;75.72;;
52738;SDS011;52466;40.122;18.318;2022-10-16T04:37:03;149.45;;;76.80;;
52738;SDS011;52466;40.122;18.318;2022-10-16T04:40:11;145.52;;;76.35;;
52738;SDS011;52466;40.122;18.318;2022-10-16T04:43:19;145.38;;;75.25;;
52738;SDS011;52466;40.122;18.318;2022-10-16T04:46:28;144.20;;;75.03;;
52738;SDS011;52466;40.122;18.318;2022-10-16T04:49:35;140.23;;;73.20;;
52738;SDS011;52466;40.122;18.318;2022-10-16T04:52:43;151.05;;;74.32;;
52738;SDS011;52466;40.122;18.318;2022-10-16T04:55:50;142.25;;;74.25;;
52738;SDS011;52466;40.122;18.318;2022-10-16T04:58:58;139.02;;;73.65;;
52738;SDS011;52466;40.122;18.318;2022-10-16T05:02:06;141.35;;;73.57;;
52738;SDS011;52466;40.122;18.318;2022-10-16T05:05:13;140.02;;;73.47;;
52738;SDS011;52466;40.122;18.318;2022-10-16T05:08:21;137.18;;;71.72;;
52738;SDS011;52466;40.122;18.318;2022-10-16T05:11:29;135.23;;;71.90;;
52738;SDS011;52466;40.122;18.318;2022-10-16T05:14:37;140.13;;;72.32;;
52738;SDS011;52466;40.122;18.318;2022-10-16T05:17:44;137.30;;;71.95;;
52738;SDS011;52466;40.122;18.318;2022-10-16T05:20:52;134.15;;;70.25;;
52738;SDS011;52466;40.122;18.318;2022-10-16T05:23:59;137.73;;;70.90;;
52738;SDS011;52466;40.122;18.318;2022-10-16T05:27:07;137.63;;;71.85;;
52738;SDS011;52466;40.122;18.318;2022-10-16T05:30:15;142.88;;;72.13;;
52738;SDS011;52466;40.122;18.318;2022-10-16T05:33:24;142.32;;;73.10;;
52738;SDS011;52466;40.122;18.318;2022-10-16T05:36:32;140.73;;;72.53;;
52738;SDS011;52466;40.122;18.318;2022-10-16T05:39:40;145.77;;;74.18;;
52738;SDS011;52466;40.122;18.318;2022-10-16T05:42:48;148.98;;;74.35;;
52738;SDS011;52466;40.122;18.318;2022-10-16T05:46:00;147.68;;;76.40;;
52738;SDS011;52466;40.122;18.318;2022-10-16T05:52:17;146.43;;;73.68;;
52738;SDS011;52466;40.122;18.318;2022-10-16T05:55:24;145.40;;;73.75;;
52738;SDS011;52466;40.122;18.318;2022-10-16T05:58:34;146.82;;;75.18;;
52738;SDS011;52466;40.122;18.318;2022-10-16T06:01:42;147.02;;;75.03;;
52738;SDS011;52466;40.122;18.318;2022-10-16T06:04:53;146.98;;;75.03;;
52738;SDS011;52466;40.122;18.318;2022-10-16T06:08:01;149.32;;;75.93;;
52738;SDS011;52466;40.122;18.318;2022-10-16T06:11:10;149.75;;;76.22;;
52738;SDS011;52466;40.122;18.318;2022-10-16T06:14:19;152.30;;;77.43;;
52738;SDS011;52466;40.122;18.318;2022-10-16T06:17:27;153.70;;;77.93;;
52738;SDS011;52466;40.122;18.318;2022-10-16T06:20:35;152.50;;;78.28;;
52738;SDS011;52466;40.122;18.318;2022-10-16T06:23:43;153.15;;;79.28;;
52738;SDS011;52466;40.122;18.318;2022-10-16T06:26:54;152.35;;;79.22;;
52738;SDS011;52466;40.122;18.318;2022-10-16T06:30:01;151.05;;;80.45;;
52738;SDS011;52466;40.122;18.318;2022-10-16T06:33:10;150.27;;;80.05;;
52738;SDS011;52466;40.122;18.318;2022-10-16T06:36:19;155.45;;;81.40;;
52738;SDS011;52466;40.122;18.318;2022-10-16T06:39:27;153.55;;;81.55;;
52738;SDS011;52466;40.122;18.318;2022-10-16T06:42:35;153.30;;;82.05;;
52738;SDS011;52466;40.122;18.318;2022-10-16T06:45:42;151.40;;;81.70;;
52738;SDS011;52466;40.122;18.318;2022-10-16T06:48:50;151.27;;;81.35;;
52738;SDS011;52466;40.122;18.318;2022-10-16T06:51:58;152.45;;;81.60;;
52738;SDS011;52466;40.122;18.318;2022-10-16T06:55:06;152.43;;;81.10;;
52738;SDS011;52466;40.122;18.318;2022-10-16T06:58:14;151.15;;;82.40;;
52738;SDS011;52466;40.122;18.318;2022-10-16T07:01:22;150.45;;;81.50;;
52738;SDS011;52466;40.122;18.318;2022-10-16T07:04:31;150.43;;;82.38;;
52738;SDS011;52466;40.122;18.318;2022-10-16T07:07:39;151.68;;;81.43;;
52738;SDS011;52466;40.122;18.318;2022-10-16T07:10:46;153.95;;;82.70;;
52738;SDS011;52466;40.122;18.318;2022-10-16T07:13:54;154.35;;;82.82;;
52738;SDS011;52466;40.122;18.318;2022-10-16T07:17:02;151.38;;;82.38;;
52738;SDS011;52466;40.122;18.318;2022-10-16T07:20:09;152.65;;;82.78;;
52738;SDS011;52466;40.122;18.318;2022-10-16T07:23:17;154.65;;;82.65;;
52738;SDS011;52466;40.122;18.318;2022-10-16T07:26:25;152.45;;;81.80;;
52738;SDS011;52466;40.122;18.318;2022-10-16T07:29:34;154.07;;;82.35;;
52738;SDS011;52466;40.122;18.318;2022-10-16T07:32:41;150.02;;;81.13;;
52738;SDS011;52466;40.122;18.318;2022-10-16T07:35:50;152.25;;;81.28;;
52738;SDS011;52466;40.122;18.318;2022-10-16T07:38:58;151.60;;;80.20;;
52738;SDS011;52466;40.122;18.318;2022-10-16T07:42:06;150.48;;;79.57;;
52738;SDS011;52466;40.122;18.318;2022-10-16T07:45:14;148.88;;;78.63;;
52738;SDS011;52466;40.122;18.318;2022-10-16T07:48:22;149.23;;;77.53;;
52738;SDS011;52466;40.122;18.318;2022-10-16T07:51:31;146.63;;;77.95;;
52738;SDS011;52466;40.122;18.318;2022-10-16T07:54:39;150.57;;;77.68;;
52738;SDS011;52466;40.122;18.318;2022-10-16T07:57:47;152.25;;;78.25;;
52738;SDS011;52466;40.122;18.318;2022-10-16T08:00:55;148.77;;;77.95;;
52738;SDS011;52466;40.122;18.318;2022-10-16T08:04:04;145.82;;;75.35;;
52738;SDS011;52466;40.122;18.318;2022-10-16T08:07:12;147.35;;;75.35;;
52738;SDS011;52466;40.122;18.318;2022-10-16T08:10:20;145.93;;;76.45;;
52738;SDS011;52466;40.122;18.318;2022-10-16T08:13:30;146.20;;;72.57;;
52738;SDS011;52466;40.122;18.318;2022-10-16T08:16:38;143.88;;;70.30;;
52738;SDS011;52466;40.122;18.318;2022-10-16T08:19:46;140.75;;;70.05;;
52738;SDS011;52466;40.122;18.318;2022-10-16T08:22:54;141.85;;;70.95;;
52738;SDS011;52466;40.122;18.318;2022-10-16T08:26:03;142.70;;;72.75;;
52738;SDS011;52466;40.122;18.318;2022-10-16T08:29:13;141.57;;;72.75;;
52738;SDS011;52466;40.122;18.318;2022-10-16T08:32:21;140.98;;;71.93;;
52738;SDS011;52466;40.122;18.318;2022-10-16T08:35:29;146.27;;;72.00;;
52738;SDS011;52466;40.122;18.318;2022-10-16T08:38:36;139.73;;;71.88;;
52738;SDS011;52466;40.122;18.318;2022-10-16T08:42:01;142.50;;;72.50;;
52738;SDS011;52466;40.122;18.318;2022-10-16T08:51:48;142.13;;;70.10;;
52738;SDS011;52466;40.122;18.318;2022-10-16T08:54:57;140.07;;;70.07;;
52738;SDS011;52466;40.122;18.318;2022-10-16T08:58:13;139.13;;;70.40;;
52738;SDS011;52466;40.122;18.318;2022-10-16T09:01:38;140.55;;;69.90;;
52738;SDS011;52466;40.122;18.318;2022-10-16T09:21:31;137.13;;;68.38;;
52738;SDS011;52466;40.122;18.318;2022-10-16T09:24:42;136.40;;;67.22;;
52738;SDS011;52466;40.122;18.318;2022-10-16T09:27:52;134.15;;;65.28;;
52738;SDS011;52466;40.122;18.318;2022-10-16T09:31:01;133.07;;;65.60;;
52738;SDS011;52466;40.122;18.318;2022-10-16T09:34:14;133.15;;;64.55;;
52738;SDS011;52466;40.122;18.318;2022-10-16T09:37:25;131.38;;;64.35;;
52738;SDS011;52466;40.122;18.318;2022-10-16T09:40:37;134.20;;;65.38;;
52738;SDS011;52466;40.122;18.318;2022-10-16T09:43:53;134.57;;;64.57;;
52738;SDS011;52466;40.122;18.318;2022-10-16T09:47:50;133.05;;;65.43;;
52738;SDS011;52466;40.122;18.318;2022-10-16T09:50:33;133.70;;;64.93;;
52738;SDS011;52466;40.122;18.318;2022-10-16T09:53:42;134.40;;;64.38;;
52738;SDS011;52466;40.122;18.318;2022-10-16T09:57:03;135.10;;;65.15;;
52738;SDS011;52466;40.122;18.318;2022-10-16T10:00:15;137.43;;;65.60;;
52738;SDS011;52466;40.122;18.318;2022-10-16T10:03:30;132.13;;;65.65;;
52738;SDS011;52466;40.122;18.318;2022-10-16T10:09:52;132.10;;;65.30;;
52738;SDS011;52466;40.122;18.318;2022-10-16T10:13:01;136.07;;;66.30;;
52738;SDS011;52466;40.122;18.318;2022-10-16T10:16:09;137.70;;;65.80;;
52738;SDS011;52466;40.122;18.318;2022-10-16T10:19:16;134.43;;;65.95;;
52738;SDS011;52466;40.122;18.318;2022-10-16T10:22:30;131.65;;;65.32;;
52738;SDS011;52466;40.122;18.318;2022-10-16T10:26:01;133.32;;;65.85;;
52738;SDS011;52466;40.122;18.318;2022-10-16T10:35:55;131.25;;;64.30;;
52738;SDS011;52466;40.122;18.318;2022-10-16T10:39:13;135.55;;;66.07;;
52738;SDS011;52466;40.122;18.318;2022-10-16T10:42:28;134.77;;;64.90;;
52738;SDS011;52466;40.122;18.318;2022-10-16T10:46:05;134.77;;;65.73;;
52738;SDS011;52466;40.122;18.318;2022-10-16T10:55:52;135.27;;;66.13;;
52738;SDS011;52466;40.122;18.318;2022-10-16T11:02:59;135.40;;;66.50;;
52738;SDS011;52466;40.122;18.318;2022-10-16T11:06:32;132.88;;;65.78;;
52738;SDS011;52466;40.122;18.318;2022-10-16T11:09:51;133.15;;;65.93;;
52738;SDS011;52466;40.122;18.318;2022-10-16T11:13:16;132.48;;;66.85;;
52738;SDS011;52466;40.122;18.318;2022-10-16T11:20:19;133.88;;;65.95;;
52738;SDS011;52466;40.122;18.318;2022-10-16T11:27:47;138.30;;;67.22;;
52738;SDS011;52466;40.122;18.318;2022-10-16T11:31:10;140.40;;;68.18;;
52738;SDS011;52466;40.122;18.318;2022-10-16T11:37:41;132.57;;;66.65;;
52738;SDS011;52466;40.122;18.318;2022-10-16T11:40:53;137.55;;;66.93;;
52738;SDS011;52466;40.122;18.318;2022-10-16T11:47:45;138.55;;;67.65;;
52738;SDS011;52466;40.122;18.318;2022-10-16T11:51:06;139.35;;;67.53;;
52738;SDS011;52466;40.122;18.318;2022-10-16T11:54:24;138.57;;;67.65;;
52738;SDS011;52466;40.122;18.318;2022-10-16T11:57:40;135.25;;;67.55;;
52738;SDS011;52466;40.122;18.318;2022-10-16T12:04:14;137.98;;;68.90;;
52738;SDS011;52466;40.122;18.318;2022-10-16T12:07:43;135.55;;;67.53;;
52738;SDS011;52466;40.122;18.318;2022-10-16T12:17:39;135.07;;;68.03;;
52738;SDS011;52466;40.122;18.318;2022-10-16T12:20:53;136.05;;;68.20;;
52738;SDS011;52466;40.122;18.318;2022-10-16T12:24:05;135.93;;;69.45;;
52738;SDS011;52466;40.122;18.318;2022-10-16T12:27:30;137.07;;;69.97;;
52738;SDS011;52466;40.122;18.318;2022-10-16T12:30:39;139.07;;;69.97;;
52738;SDS011;52466;40.122;18.318;2022-10-16T12:34:01;136.88;;;69.40;;
52738;SDS011;52466;40.122;18.318;2022-10-16T12:40:28;139.38;;;69.88;;
52738;SDS011;52466;40.122;18.318;2022-10-16T12:43:39;139.13;;;69.78;;
52738;SDS011;52466;40.122;18.318;2022-10-16T12:46:49;141.05;;;68.00;;
52738;SDS011;52466;40.122;18.318;2022-10-16T12:49:58;138.43;;;69.20;;
52738;SDS011;52466;40.122;18.318;2022-10-16T13:00:33;141.88;;;70.53;;
52738;SDS011;52466;40.122;18.318;2022-10-16T13:04:08;139.20;;;69.90;;
52738;SDS011;52466;40.122;18.318;2022-10-16T13:28:07;135.10;;;66.57;;
52738;SDS011;52466;40.122;18.318;2022-10-16T13:31:21;132.80;;;65.22;;
52738;SDS011;52466;40.122;18.318;2022-10-16T13:34:41;131.05;;;65.10;;
52738;SDS011;52466;40.122;18.318;2022-10-16T13:38:04;131.35;;;63.10;;
52738;SDS011;52466;40.122;18.318;2022-10-16T13:41:25;128.60;;;62.20;;
52738;SDS011;52466;40.122;18.318;2022-10-16T13:44:42;128.82;;;61.58;;
52738;SDS011;52466;40.122;18.318;2022-10-16T13:48:03;127.20;;;61.37;;
52738;SDS011;52466;40.122;18.318;2022-10-16T13:54:24;127.07;;;60.67;;
52738;SDS011;52466;40.122;18.318;2022-10-16T13:57:33;126.60;;;60.90;;
52738;SDS011;52466;40.122;18.318;2022-10-16T14:00:41;131.88;;;61.72;;
52738;SDS011;52466;40.122;18.318;2022-10-16T14:04:02;129.75;;;61.42;;
52738;SDS011;52466;40.122;18.318;2022-10-16T14:10:30;126.43;;;60.20;;
52738;SDS011;52466;40.122;18.318;2022-10-16T14:13:39;128.38;;;60.88;;
52738;SDS011;52466;40.122;18.318;2022-10-16T14:16:51;126.70;;;61.00;;
52738;SDS011;52466;40.122;18.318;2022-10-16T14:19:59;129.38;;;61.13;;
52738;SDS011;52466;40.122;18.318;2022-10-16T14:26:41;130.80;;;61.15;;
52738;SDS011;52466;40.122;18.318;2022-10-16T14:29:49;125.65;;;60.95;;
52738;SDS011;52466;40.122;18.318;2022-10-16T14:32:58;129.02;;;61.22;;
52738;SDS011;52466;40.122;18.318;2022-10-16T14:39:20;127.28;;;61.22;;
52738;SDS011;52466;40.122;18.318;2022-10-16T14:42:29;129.25;;;61.35;;
52738;SDS011;52466;40.122;18.318;2022-10-16T14:45:37;125.50;;;60.88;;
52738;SDS011;52466;40.122;18.318;2022-10-16T14:48:49;127.80;;;61.38;;
52738;SDS011;52466;40.122;18.318;2022-10-16T14:51:59;129.57;;;61.35;;
52738;SDS011;52466;40.122;18.318;2022-10-16T14:55:08;128.73;;;61.50;;
52738;SDS011;52466;40.122;18.318;2022-10-16T14:58:22;126.85;;;60.28;;
52738;SDS011;52466;40.122;18.318;2022-10-16T15:01:32;126.93;;;61.40;;
52738;SDS011;52466;40.122;18.318;2022-10-16T15:04:39;127.13;;;61.15;;
52738;SDS011;52466;40.122;18.318;2022-10-16T15:07:47;128.40;;;61.50;;
52738;SDS011;52466;40.122;18.318;2022-10-16T15:10:56;126.15;;;61.90;;
52738;SDS011;52466;40.122;18.318;2022-10-16T15:14:03;127.95;;;61.72;;
52738;SDS011;52466;40.122;18.318;2022-10-16T15:17:11;125.68;;;61.17;;
52738;SDS011;52466;40.122;18.318;2022-10-16T15:20:19;125.75;;;61.38;;
52738;SDS011;52466;40.122;18.318;2022-10-16T15:23:27;127.50;;;61.42;;
52738;SDS011;52466;40.122;18.318;2022-10-16T15:26:35;126.20;;;61.50;;
52738;SDS011;52466;40.122;18.318;2022-10-16T15:29:43;127.82;;;61.08;;
52738;SDS011;52466;40.122;18.318;2022-10-16T15:32:51;129.98;;;61.15;;
52738;SDS011;52466;40.122;18.318;2022-10-16T15:35:59;125.43;;;60.95;;
52738;SDS011;52466;40.122;18.318;2022-10-16T15:39:17;127.60;;;61.00;;
52738;SDS011;52466;40.122;18.318;2022-10-16T15:42:26;130.10;;;62.25;;
52738;SDS011;52466;40.122;18.318;2022-10-16T15:45:34;129.32;;;61.30;;
52738;SDS011;52466;40.122;18.318;2022-10-16T15:48:42;128.25;;;61.83;;
52738;SDS011;52466;40.122;18.318;2022-10-16T15:51:50;127.82;;;61.53;;
52738;SDS011;52466;40.122;18.318;2022-10-16T15:54:59;125.40;;;61.88;;
52738;SDS011;52466;40.122;18.318;2022-10-16T15:58:07;131.27;;;61.90;;
52738;SDS011;52466;40.122;18.318;2022-10-16T16:01:15;130.25;;;62.63;;
52738;SDS011;52466;40.122;18.318;2022-10-16T16:04:23;128.75;;;62.88;;
52738;SDS011;52466;40.122;18.318;2022-10-16T16:07:37;129.95;;;62.00;;
52738;SDS011;52466;40.122;18.318;2022-10-16T16:10:59;127.28;;;62.35;;
52738;SDS011;52466;40.122;18.318;2022-10-16T16:14:12;128.65;;;63.05;;
52738;SDS011;52466;40.122;18.318;2022-10-16T16:17:20;127.47;;;62.72;;
52738;SDS011;52466;40.122;18.318;2022-10-16T16:20:28;129.40;;;62.50;;
52738;SDS011;52466;40.122;18.318;2022-10-16T16:23:36;128.85;;;62.65;;
52738;SDS011;52466;40.122;18.318;2022-10-16T16:26:44;128.15;;;61.78;;
52738;SDS011;52466;40.122;18.318;2022-10-16T16:29:53;129.55;;;62.30;;
52738;SDS011;52466;40.122;18.318;2022-10-16T16:33:02;125.18;;;61.63;;
52738;SDS011;52466;40.122;18.318;2022-10-16T16:36:11;125.60;;;62.50;;
52738;SDS011;52466;40.122;18.318;2022-10-16T16:39:20;125.93;;;62.65;;
52738;SDS011;52466;40.122;18.318;2022-10-16T16:42:28;125.15;;;62.28;;
52738;SDS011;52466;40.122;18.318;2022-10-16T16:45:35;126.25;;;62.30;;
52738;SDS011;52466;40.122;18.318;2022-10-16T16:48:44;125.03;;;62.03;;
52738;SDS011;52466;40.122;18.318;2022-10-16T16:51:52;125.47;;;62.90;;
52738;SDS011;52466;40.122;18.318;2022-10-16T16:55:00;124.22;;;61.70;;
52738;SDS011;52466;40.122;18.318;2022-10-16T16:58:08;124.15;;;62.15;;
52738;SDS011;52466;40.122;18.318;2022-10-16T17:01:16;126.18;;;62.15;;
52738;SDS011;52466;40.122;18.318;2022-10-16T17:04:24;125.82;;;62.65;;
52738;SDS011;52466;40.122;18.318;2022-10-16T17:07:33;130.48;;;63.10;;
52738;SDS011;52466;40.122;18.318;2022-10-16T17:10:42;129.00;;;63.75;;
52738;SDS011;52466;40.122;18.318;2022-10-16T17:13:50;125.78;;;62.80;;
52738;SDS011;52466;40.122;18.318;2022-10-16T17:17:00;127.85;;;63.63;;
52738;SDS011;52466;40.122;18.318;2022-10-16T17:20:08;130.65;;;64.22;;
52738;SDS011;52466;40.122;18.318;2022-10-16T17:23:17;131.40;;;65.57;;
52738;SDS011;52466;40.122;18.318;2022-10-16T17:26:26;131.85;;;64.18;;
52738;SDS011;52466;40.122;18.318;2022-10-16T17:29:34;127.65;;;63.55;;
52738;SDS011;52466;40.122;18.318;2022-10-16T17:32:42;129.02;;;64.32;;
52738;SDS011;52466;40.122;18.318;2022-10-16T17:35:50;129.73;;;64.35;;
52738;SDS011;52466;40.122;18.318;2022-10-16T17:38:58;128.02;;;65.18;;
52738;SDS011;52466;40.122;18.318;2022-10-16T17:42:07;132.15;;;64.85;;
52738;SDS011;52466;40.122;18.318;2022-10-16T17:45:15;128.65;;;65.43;;
52738;SDS011;52466;40.122;18.318;2022-10-16T17:48:23;130.65;;;65.53;;
52738;SDS011;52466;40.122;18.318;2022-10-16T17:51:31;130.05;;;65.60;;
52738;SDS011;52466;40.122;18.318;2022-10-16T17:54:39;131.23;;;65.60;;
52738;SDS011;52466;40.122;18.318;2022-10-16T17:57:47;131.75;;;66.20;;
52738;SDS011;52466;40.122;18.318;2022-10-16T18:00:54;137.63;;;66.85;;
52738;SDS011;52466;40.122;18.318;2022-10-16T18:04:03;130.75;;;66.45;;
52738;SDS011;52466;40.122;18.318;2022-10-16T18:07:15;132.45;;;67.45;;
52738;SDS011;52466;40.122;18.318;2022-10-16T18:10:24;131.73;;;67.57;;
52738;SDS011;52466;40.122;18.318;2022-10-16T18:13:31;134.80;;;67.40;;
52738;SDS011;52466;40.122;18.318;2022-10-16T18:16:39;132.73;;;67.68;;
52738;SDS011;52466;40.122;18.318;2022-10-16T18:19:48;133.73;;;69.35;;
52738;SDS011;52466;40.122;18.318;2022-10-16T18:22:56;131.85;;;67.80;;
52738;SDS011;52466;40.122;18.318;2022-10-16T18:26:04;133.18;;;67.43;;
52738;SDS011;52466;40.122;18.318;2022-10-16T18:29:12;134.20;;;69.57;;
52738;SDS011;52466;40.122;18.318;2022-10-16T18:32:20;139.10;;;70.43;;
52738;SDS011;52466;40.122;18.318;2022-10-16T18:35:27;136.77;;;70.22;;
52738;SDS011;52466;40.122;18.318;2022-10-16T18:38:36;136.27;;;70.40;;
52738;SDS011;52466;40.122;18.318;2022-10-16T18:41:43;136.30;;;70.68;;
52738;SDS011;52466;40.122;18.318;2022-10-16T18:44:51;138.27;;;72.82;;
52738;SDS011;52466;40.122;18.318;2022-10-16T18:47:59;139.45;;;72.30;;
52738;SDS011;52466;40.122;18.318;2022-10-16T18:54:25;139.68;;;73.07;;
52738;SDS011;52466;40.122;18.318;2022-10-16T18:57:33;140.95;;;73.72;;
52738;SDS011;52466;40.122;18.318;2022-10-16T19:00:40;142.00;;;73.70;;
52738;SDS011;52466;40.122;18.318;2022-10-16T19:03:52;142.32;;;74.25;;
52738;SDS011;52466;40.122;18.318;2022-10-16T19:07:11;144.07;;;72.88;;
52738;SDS011;52466;40.122;18.318;2022-10-16T19:10:21;142.30;;;73.85;;
52738;SDS011;52466;40.122;18.318;2022-10-16T19:13:29;146.68;;;75.85;;
52738;SDS011;52466;40.122;18.318;2022-10-16T19:16:37;145.75;;;75.82;;
52738;SDS011;52466;40.122;18.318;2022-10-16T19:19:46;148.27;;;76.95;;
52738;SDS011;52466;40.122;18.318;2022-10-16T19:22:53;146.57;;;77.00;;
52738;SDS011;52466;40.122;18.318;2022-10-16T19:26:06;146.75;;;77.63;;
52738;SDS011;52466;40.122;18.318;2022-10-16T19:29:15;147.02;;;76.90;;
52738;SDS011;52466;40.122;18.318;2022-10-16T19:32:22;146.73;;;77.75;;
52738;SDS011;52466;40.122;18.318;2022-10-16T19:35:31;152.88;;;77.80;;
52738;SDS011;52466;40.122;18.318;2022-10-16T19:38:39;147.45;;;76.43;;
52738;SDS011;52466;40.122;18.318;2022-10-16T19:41:48;141.65;;;74.63;;
52738;SDS011;52466;40.122;18.318;2022-10-16T19:44:56;148.40;;;77.18;;
52738;SDS011;52466;40.122;18.318;2022-10-16T19:48:04;143.95;;;76.38;;
52738;SDS011;52466;40.122;18.318;2022-10-16T19:51:15;146.95;;;77.65;;
52738;SDS011;52466;40.122;18.318;2022-10-16T19:54:24;143.32;;;75.97;;
52738;SDS011;52466;40.122;18.318;2022-10-16T19:57:34;145.00;;;78.70;;
52738;SDS011;52466;40.122;18.318;2022-10-16T20:00:42;146.95;;;79.05;;
52738;SDS011;52466;40.122;18.318;2022-10-16T20:03:50;152.35;;;80.93;;
52738;SDS011;52466;40.122;18.318;2022-10-16T20:06:58;150.35;;;80.93;;
52738;SDS011;52466;40.122;18.318;2022-10-16T20:10:06;155.43;;;82.90;;
52738;SDS011;52466;40.122;18.318;2022-10-16T20:13:14;152.88;;;82.50;;
52738;SDS011;52466;40.122;18.318;2022-10-16T20:16:22;154.80;;;84.03;;
52738;SDS011;52466;40.122;18.318;2022-10-16T20:19:31;150.90;;;82.20;;
52738;SDS011;52466;40.122;18.318;2022-10-16T20:22:40;157.93;;;83.93;;
52738;SDS011;52466;40.122;18.318;2022-10-16T20:25:47;156.00;;;83.57;;